createdAt,value
2024-01-08T00:00:26.986Z,-1.88
2024-01-08T00:04:28.656Z,-2.74
2024-01-08T00:08:30.196Z,-2.34
2024-01-08T00:12:31.743Z,-2.87
2024-01-08T00:16:33.389Z,-2.47
2024-01-08T00:20:34.854Z,-4.29
2024-01-08T00:24:36.369Z,-3.75
2024-01-08T00:28:37.971Z,-4.81
2024-01-08T00:32:39.527Z,-3.81
2024-01-08T00:36:42.202Z,-4.61
2024-01-08T00:40:44.271Z,-3.31
2024-01-08T00:44:45.903Z,-2.53
2024-01-08T00:48:47.432Z,-1.91
2024-01-08T00:52:48.991Z,-3.16
2024-01-08T00:56:50.545Z,-2.42
2024-01-08T01:00:52.060Z,-2.35
2024-01-08T01:04:53.989Z,-3.75
2024-01-08T01:08:55.587Z,-3.70
2024-01-08T01:12:57.142Z,-3.59
2024-01-08T01:16:59.080Z,-3.64
2024-01-08T01:21:01.160Z,-4.01
2024-01-08T01:25:02.675Z,-4.82
2024-01-08T01:29:04.286Z,-4.24
2024-01-08T01:33:05.860Z,-4.37
2024-01-08T01:37:08.994Z,-4.04
2024-01-08T01:41:11.650Z,-4.55
2024-01-08T01:45:13.196Z,-2.82
2024-01-08T01:49:17.357Z,-3.99
2024-01-08T01:53:19.063Z,-2.92
2024-01-08T01:57:20.842Z,-3.11
2024-01-08T02:01:22.356Z,-4.04
2024-01-08T02:05:24.155Z,-3.20
2024-01-08T02:09:26.092Z,-4.14
2024-01-08T02:13:27.536Z,-3.29
2024-01-08T02:17:29.070Z,-3.58
2024-01-08T02:21:30.816Z,-4.28
2024-01-08T02:25:32.601Z,-4.61
2024-01-08T02:29:34.183Z,-4.90
2024-01-08T02:33:35.821Z,-3.92
2024-01-08T02:37:37.321Z,-3.90
2024-01-08T02:41:38.882Z,-4.42
2024-01-08T02:45:40.478Z,-4.35
2024-01-08T02:49:41.976Z,-4.96
2024-01-08T02:53:43.565Z,-5.22
2024-01-08T02:57:45.036Z,-5.05
2024-01-08T03:01:46.508Z,-4.58
2024-01-08T03:05:48.237Z,-5.62
2024-01-08T03:09:50.456Z,-4.92
2024-01-08T03:13:52.040Z,-5.32
2024-01-08T03:17:53.953Z,-3.80
2024-01-08T03:21:55.520Z,-3.18
2024-01-08T03:25:57.015Z,-4.23
2024-01-08T03:29:58.541Z,-4.45
2024-01-08T03:34:00.455Z,-4.46
2024-01-08T03:38:02.394Z,-4.20
2024-01-08T03:42:04.113Z,-4.29
2024-01-08T03:46:05.694Z,-4.81
2024-01-08T03:50:08.192Z,-3.71
2024-01-08T03:54:09.962Z,-5.67
2024-01-08T03:58:11.610Z,-5.32
2024-01-08T04:02:14.108Z,-4.56
2024-01-08T04:06:15.904Z,-4.79
2024-01-08T04:10:17.481Z,-3.51
2024-01-08T04:14:18.978Z,-3.75
2024-01-08T04:18:20.656Z,-6.03
2024-01-08T04:22:22.190Z,-4.62
2024-01-08T04:26:26.214Z,-6.26
2024-01-08T04:30:27.870Z,-6.01
2024-01-08T04:34:29.386Z,-4.44
2024-01-08T04:38:30.962Z,-3.92
2024-01-08T04:42:32.496Z,-5.16
2024-01-08T04:46:34.056Z,-5.26
2024-01-08T04:50:35.654Z,-5.34
2024-01-08T04:54:37.157Z,-5.66
2024-01-08T04:58:38.685Z,-6.50
2024-01-08T05:02:40.309Z,-4.94
2024-01-08T05:06:44.260Z,-5.10
2024-01-08T05:10:45.836Z,-2.93
2024-01-08T05:14:47.326Z,-5.97
2024-01-08T05:18:49.112Z,-6.23
2024-01-08T05:22:50.693Z,-6.13
2024-01-08T05:26:52.217Z,-5.88
2024-01-08T05:30:53.907Z,-6.03
2024-01-08T05:34:56.179Z,-5.98
2024-01-08T05:39:00.620Z,-6.39
2024-01-08T05:43:02.160Z,-6.19
2024-01-08T05:47:04.036Z,-6.19
2024-01-08T05:51:05.818Z,-5.83
2024-01-08T05:55:07.950Z,-5.56
2024-01-08T05:59:09.567Z,-5.45
2024-01-08T06:03:11.160Z,-4.08
2024-01-08T06:07:12.860Z,-4.30
2024-01-08T06:11:14.434Z,-4.06
2024-01-08T06:15:16.687Z,-3.25
2024-01-08T06:19:18.253Z,-3.92
2024-01-08T06:23:19.815Z,-4.20
2024-01-08T06:27:21.298Z,-5.32
2024-01-08T06:31:23.150Z,-5.11
2024-01-08T06:35:25.047Z,-4.43
2024-01-08T06:39:27.573Z,-5.30
2024-01-08T06:43:29.080Z,-4.72
2024-01-08T06:47:30.627Z,-6.51
2024-01-08T06:51:32.174Z,-6.50
2024-01-08T06:55:33.797Z,-5.94
2024-01-08T06:59:35.339Z,-5.96
2024-01-08T07:03:36.881Z,-4.33
2024-01-08T07:07:39.010Z,-3.05
2024-01-08T07:11:40.619Z,-6.89
2024-01-08T07:15:44.851Z,-6.96
2024-01-08T07:19:46.313Z,-5.75
2024-01-08T07:23:49.558Z,-6.36
2024-01-08T07:27:51.537Z,-5.97
2024-01-08T07:31:53.238Z,-5.71
2024-01-08T07:35:54.941Z,-5.93
2024-01-08T07:39:56.423Z,-5.33
2024-01-08T07:43:57.923Z,-6.16
2024-01-08T07:47:59.719Z,-4.53
2024-01-08T07:52:01.622Z,-3.50
2024-01-08T07:56:03.882Z,-5.59
2024-01-08T08:00:10.612Z,-4.62
2024-01-08T08:04:12.379Z,-4.32
2024-01-08T08:08:14.937Z,-5.46
2024-01-08T08:12:16.844Z,-5.21
2024-01-08T08:16:18.536Z,-4.24
2024-01-08T08:20:21.742Z,-3.73
2024-01-08T08:24:23.708Z,-3.63
2024-01-08T08:28:25.452Z,-5.29
2024-01-08T08:32:27.211Z,-5.46
2024-01-08T08:36:29.602Z,-3.51
2024-01-08T08:40:31.136Z,-4.60
2024-01-08T08:44:32.808Z,-4.48
2024-01-08T08:48:34.373Z,-2.98
2024-01-08T08:52:35.947Z,-5.87
2024-01-08T08:56:37.681Z,-5.42
2024-01-08T09:00:39.430Z,-4.15
2024-01-08T09:04:41.028Z,-3.70
2024-01-08T09:08:42.834Z,-4.26
2024-01-08T09:12:46.897Z,-4.14
2024-01-08T09:16:48.610Z,-5.40
2024-01-08T09:20:50.195Z,-4.96
2024-01-08T09:24:51.766Z,-5.87
2024-01-08T09:28:53.289Z,-5.58
2024-01-08T09:32:55.019Z,-4.33
2024-01-08T09:36:56.789Z,-4.92
2024-01-08T09:41:01.702Z,-4.85
2024-01-08T09:45:12.119Z,-3.87
2024-01-08T09:49:16.025Z,-5.48
2024-01-08T09:53:18.209Z,-5.18
2024-01-08T09:57:19.724Z,-4.95
2024-01-08T10:01:21.329Z,-6.39
2024-01-08T10:05:23.249Z,-6.16
2024-01-08T10:09:25.646Z,-5.89
2024-01-08T10:13:27.857Z,-4.85
2024-01-08T10:17:31.719Z,-5.71
2024-01-08T10:21:33.398Z,-6.28
2024-01-08T10:25:38.967Z,-5.51
2024-01-08T10:29:41.869Z,-3.79
2024-01-08T10:33:44.493Z,-4.87
2024-01-08T10:37:48.550Z,-4.92
2024-01-08T10:41:50.855Z,-4.53
2024-01-08T10:45:57.348Z,-5.28
2024-01-08T10:50:04.119Z,-4.19
2024-01-08T10:54:08.670Z,-4.45
2024-01-08T10:58:24.119Z,-3.13
2024-01-08T11:02:27.675Z,-4.89
2024-01-08T11:06:43.767Z,-4.55
2024-01-08T11:10:46.754Z,-4.99
2024-01-08T11:14:48.708Z,-5.22
2024-01-08T11:18:50.581Z,-5.43
2024-01-08T11:22:54.195Z,-4.70
2024-01-08T11:26:55.697Z,-4.35
2024-01-08T11:31:20.138Z,-3.85
2024-01-08T11:35:29.140Z,-5.64
2024-01-08T11:39:39.445Z,-5.64
2024-01-08T11:43:41.364Z,-5.23
2024-01-08T11:47:44.636Z,-4.95
2024-01-08T11:51:50.141Z,-5.09
2024-01-08T11:55:51.717Z,-5.09
2024-01-08T11:59:53.844Z,-4.31
2024-01-08T12:03:59.755Z,-6.10
2024-01-08T12:08:01.469Z,-4.71
2024-01-08T12:12:08.037Z,-3.94
2024-01-08T12:16:09.736Z,-4.68
2024-01-08T12:20:12.677Z,-6.42
2024-01-08T12:24:14.963Z,-5.83
2024-01-08T12:28:16.460Z,-5.07
2024-01-08T12:32:22.672Z,-6.06
2024-01-08T12:36:24.273Z,-4.09
2024-01-08T12:40:25.773Z,-4.88
2024-01-08T12:44:29.401Z,-4.24
2024-01-08T12:48:31.117Z,-4.54
2024-01-08T12:52:32.778Z,-4.25
2024-01-08T12:56:34.384Z,-5.06
2024-01-08T13:00:37.019Z,-3.95
2024-01-08T13:04:38.791Z,-5.12
2024-01-08T13:08:42.413Z,-3.78
2024-01-08T13:12:44.097Z,-5.51
2024-01-08T13:16:50.136Z,-4.51
2024-01-08T13:20:52.165Z,-4.89
2024-01-08T13:25:00.556Z,-3.86
2024-01-08T13:29:02.057Z,-4.31
2024-01-08T13:33:04.031Z,-4.00
2024-01-08T13:37:05.801Z,-3.94
2024-01-08T13:41:09.274Z,-3.55
2024-01-08T13:45:11.700Z,-5.24
2024-01-08T13:49:13.391Z,-4.04
2024-01-08T13:53:15.594Z,-5.36
2024-01-08T13:57:17.075Z,-4.02
2024-01-08T14:01:18.754Z,-1.64
2024-01-08T14:05:20.539Z,-2.93
2024-01-08T14:09:22.115Z,-4.92
2024-01-08T14:13:23.601Z,-4.01
2024-01-08T14:17:25.169Z,-4.15
2024-01-08T14:21:27.139Z,-5.11
2024-01-08T14:25:28.675Z,-3.49
2024-01-08T14:29:30.205Z,-2.80
2024-01-08T14:33:32.028Z,-3.07
2024-01-08T14:37:33.904Z,-3.89
2024-01-08T14:41:35.589Z,-1.55
2024-01-08T14:45:37.303Z,-1.91
2024-01-08T14:49:41.592Z,-1.23
2024-01-08T14:53:46.054Z,-3.16
2024-01-08T14:57:47.573Z,-2.65
2024-01-08T15:01:49.080Z,-2.42
2024-01-08T15:05:50.706Z,-1.99
2024-01-08T15:09:52.214Z,-4.07
2024-01-08T15:13:53.804Z,-3.41
2024-01-08T15:17:55.648Z,-4.52
2024-01-08T15:22:00.250Z,-2.74
2024-01-08T15:26:02.809Z,-2.17
2024-01-08T15:30:14.916Z,-3.52
2024-01-08T15:34:16.747Z,-3.41
2024-01-08T15:38:18.321Z,-2.47
2024-01-08T15:42:19.976Z,-2.23
2024-01-08T15:46:21.522Z,-2.61
2024-01-08T15:50:23.455Z,-2.68
2024-01-08T15:54:25.082Z,-2.55
2024-01-08T15:58:26.703Z,-2.53
2024-01-08T16:02:28.501Z,-2.00
2024-01-08T16:06:30.248Z,-3.09
2024-01-08T16:10:31.894Z,-3.01
2024-01-08T16:14:33.982Z,-3.07
2024-01-08T16:18:37.142Z,-2.46
2024-01-08T16:22:38.978Z,-1.98
2024-01-08T16:26:41.920Z,-1.94
2024-01-08T16:30:46.247Z,-1.88
2024-01-08T16:34:53.310Z,-2.05
2024-01-08T16:38:57.747Z,-1.70
2024-01-08T16:43:00.305Z,-1.89
2024-01-08T16:47:01.816Z,-1.76
2024-01-08T16:51:07.260Z,-5.21
2024-01-08T16:55:08.950Z,-2.85
2024-01-08T16:59:10.649Z,-2.86
2024-01-08T17:03:12.425Z,-3.21
2024-01-08T17:07:14.001Z,-3.45
2024-01-08T17:11:15.645Z,-2.33
2024-01-08T17:15:17.159Z,-4.01
2024-01-08T17:19:19.546Z,-3.93
2024-01-08T17:23:21.699Z,-3.27
2024-01-08T17:27:23.246Z,-3.21
2024-01-08T17:31:25.490Z,-3.38
2024-01-08T17:35:27.054Z,-3.52
2024-01-08T17:39:28.627Z,-3.04
2024-01-08T17:43:30.117Z,-2.75
2024-01-08T17:47:32.765Z,-3.09
2024-01-08T17:51:34.450Z,-4.12
2024-01-08T17:55:35.982Z,-4.01
2024-01-08T17:59:38.268Z,-2.15
2024-01-08T18:03:39.940Z,-2.51
2024-01-08T18:07:41.420Z,-3.35
2024-01-08T18:11:44.256Z,-2.56
2024-01-08T18:15:45.965Z,-2.89
2024-01-08T18:19:47.738Z,-3.48
2024-01-08T18:23:49.550Z,-4.37
2024-01-08T18:27:51.809Z,-4.51
2024-01-08T18:31:53.351Z,-2.39
2024-01-08T18:35:55.040Z,-2.40
2024-01-08T18:39:57.152Z,-2.96
2024-01-08T18:43:59.376Z,-2.90
2024-01-08T18:48:01.339Z,-3.06
2024-01-08T18:52:03.771Z,-3.03
2024-01-08T18:56:05.503Z,-3.27
2024-01-08T19:00:07.916Z,-2.89
2024-01-08T19:04:09.966Z,-3.29
2024-01-08T19:08:11.766Z,-3.11
2024-01-08T19:12:14.048Z,-3.11
2024-01-08T19:16:20.404Z,-3.33
2024-01-08T19:20:24.858Z,-3.19
2024-01-08T19:24:29.513Z,-4.21
2024-01-08T19:28:32.375Z,-3.70
2024-01-08T19:32:34.025Z,-3.85
2024-01-08T19:36:35.578Z,-4.19
2024-01-08T19:40:37.057Z,-4.37
2024-01-08T19:44:39.389Z,-4.27
2024-01-08T19:48:40.968Z,-4.46
2024-01-08T19:52:42.556Z,-4.16
2024-01-08T19:56:45.640Z,-3.98
2024-01-08T20:00:47.553Z,-3.92
2024-01-08T20:04:49.363Z,-4.15
2024-01-08T20:08:50.957Z,-4.56
2024-01-08T20:12:52.648Z,-5.09
2024-01-08T20:16:54.262Z,-4.20
2024-01-08T20:21:01.632Z,-4.08
2024-01-08T20:25:04.013Z,-4.32
2024-01-08T20:29:05.665Z,-4.04
2024-01-08T20:33:07.481Z,-4.16
2024-01-08T20:37:09.108Z,-4.50
2024-01-08T20:41:11.801Z,-4.82
2024-01-08T20:45:13.361Z,-4.84
2024-01-08T20:49:15.231Z,-4.77
2024-01-08T20:53:17.005Z,-4.95
2024-01-08T20:57:18.715Z,-5.29
2024-01-08T21:01:21.043Z,-5.00
2024-01-08T21:05:23.333Z,-5.22
2024-01-08T21:09:24.962Z,-4.78
2024-01-08T21:13:26.548Z,-4.86
2024-01-08T21:17:28.268Z,-5.00
2024-01-08T21:21:29.977Z,-4.87
2024-01-08T21:25:31.730Z,-4.94
2024-01-08T21:29:33.465Z,-5.20
2024-01-08T21:33:38.444Z,-4.80
2024-01-08T21:37:40.284Z,-5.13
2024-01-08T21:41:42.874Z,-5.35
2024-01-08T21:45:44.646Z,-5.43
2024-01-08T21:49:46.447Z,-5.59
2024-01-08T21:53:48.508Z,-5.20
2024-01-08T21:57:50.064Z,-5.51
2024-01-08T22:01:51.592Z,-5.50
2024-01-08T22:05:54.231Z,-5.87
2024-01-08T22:09:55.889Z,-5.74
2024-01-08T22:13:57.390Z,-5.36
2024-01-08T22:17:59.202Z,-5.63
2024-01-08T22:22:01.066Z,-5.40
2024-01-08T22:26:03.579Z,-5.84
2024-01-08T22:30:05.942Z,-6.33
2024-01-08T22:34:08.264Z,-5.87
2024-01-08T22:38:10.061Z,-5.62
2024-01-08T22:42:11.903Z,-5.37
2024-01-08T22:50:49.435Z,-5.55
2024-01-08T22:54:51.146Z,-5.63
2024-01-08T22:58:52.663Z,-5.86
2024-01-08T23:02:54.188Z,-6.17
2024-01-08T23:06:55.765Z,-6.20
2024-01-08T23:10:57.291Z,-6.05
2024-01-08T23:14:58.975Z,-5.96
2024-01-08T23:19:00.594Z,-6.13
2024-01-08T23:23:02.809Z,-6.39
2024-01-08T23:27:06.095Z,-6.63
2024-01-08T23:31:07.802Z,-6.50
2024-01-08T23:35:09.726Z,-6.95
2024-01-08T23:39:11.391Z,-6.50
2024-01-08T23:43:16.948Z,-6.71
2024-01-08T23:47:18.586Z,-6.77
2024-01-08T23:51:20.102Z,-7.15
2024-01-08T23:55:21.573Z,-6.68
2024-01-08T23:59:23.057Z,-6.36
